createdAt,value
2023-04-15T00:02:02.758Z,93.31
2023-04-15T00:04:34.292Z,93.17
2023-04-15T00:07:05.722Z,93.04
2023-04-15T00:09:35.169Z,92.95
2023-04-15T00:12:06.688Z,92.95
2023-04-15T00:14:38.533Z,92.99
2023-04-15T00:17:09.842Z,92.90
2023-04-15T00:19:41.197Z,92.94
2023-04-15T00:22:12.292Z,92.87
2023-04-15T00:24:43.275Z,92.92
2023-04-15T00:27:12.753Z,92.73
2023-04-15T00:29:43.791Z,92.77
2023-04-15T00:32:15.468Z,92.67
2023-04-15T00:34:47.275Z,92.85
2023-04-15T00:37:18.388Z,92.86
2023-04-15T00:39:47.896Z,92.34
2023-04-15T00:42:19.814Z,91.70
2023-04-15T00:44:50.884Z,90.48
2023-04-15T00:47:22.844Z,89.86
2023-04-15T00:49:54.301Z,89.82
2023-04-15T00:52:25.195Z,89.79
2023-04-15T00:54:54.740Z,89.94
2023-04-15T00:57:25.733Z,90.06
2023-04-15T00:59:58.406Z,90.02
2023-04-15T01:02:29.568Z,90.06
2023-04-15T01:05:01.192Z,90.03
2023-04-15T01:07:33.466Z,90.04
2023-04-15T01:10:05.713Z,90.19
2023-04-15T01:12:37.918Z,90.35
2023-04-15T01:15:11.548Z,90.43
2023-04-15T01:17:43.720Z,90.60
2023-04-15T01:20:16.761Z,90.70
2023-04-15T01:22:48.132Z,90.76
2023-04-15T01:25:23.743Z,90.63
2023-04-15T01:27:55.070Z,90.53
2023-04-15T01:30:27.058Z,90.80
2023-04-15T01:32:58.241Z,90.95
2023-04-15T01:35:28.330Z,90.96
2023-04-15T01:38:04.991Z,90.87
2023-04-15T01:40:36.309Z,90.74
2023-04-15T01:43:07.541Z,90.57
2023-04-15T01:45:38.856Z,90.68
2023-04-15T01:48:09.941Z,90.63
2023-04-15T01:50:40.963Z,90.45
2023-04-15T01:53:12.081Z,90.29
2023-04-15T01:55:43.155Z,90.20
2023-04-15T01:58:14.355Z,90.16
2023-04-15T02:00:45.603Z,89.75
2023-04-15T02:03:15.083Z,89.47
2023-04-15T02:05:46.643Z,89.21
2023-04-15T02:08:18.765Z,89.26
2023-04-15T02:10:50.172Z,89.26
2023-04-15T02:13:21.543Z,89.49
2023-04-15T02:15:53.806Z,89.41
2023-04-15T02:18:25.271Z,89.44
2023-04-15T02:20:57.342Z,89.57
2023-04-15T02:23:28.638Z,89.55
2023-04-15T02:26:00.066Z,89.38
2023-04-15T02:28:31.573Z,89.32
2023-04-15T02:31:06.745Z,89.46
2023-04-15T02:33:38.339Z,89.45
2023-04-15T02:36:11.604Z,89.38
2023-04-15T02:38:43.385Z,89.25
2023-04-15T02:41:14.950Z,89.33
2023-04-15T02:43:46.085Z,89.15
2023-04-15T02:46:15.659Z,89.17
2023-04-15T02:48:46.619Z,89.01
2023-04-15T02:51:16.988Z,89.12
2023-04-15T02:53:48.541Z,89.05
2023-04-15T02:56:19.886Z,89.01
2023-04-15T02:58:51.670Z,88.81
2023-04-15T03:01:22.540Z,88.68
2023-04-15T03:03:55.275Z,88.41
2023-04-15T03:06:24.890Z,88.11
2023-04-15T03:08:57.008Z,88.11
2023-04-15T03:11:28.392Z,88.11
2023-04-15T03:13:59.535Z,88.12
2023-04-15T03:16:30.986Z,88.23
2023-04-15T03:19:02.018Z,88.37
2023-04-15T03:21:33.221Z,88.38
2023-04-15T03:24:04.299Z,88.35
2023-04-15T03:26:35.349Z,88.24
2023-04-15T03:29:06.662Z,88.33
2023-04-15T03:31:37.784Z,88.22
2023-04-15T03:34:07.563Z,88.12
2023-04-15T03:36:38.921Z,87.90
2023-04-15T03:39:09.939Z,87.68
2023-04-15T03:41:39.462Z,87.52
2023-04-15T03:44:10.584Z,87.78
2023-04-15T03:46:40.270Z,87.61
2023-04-15T03:49:11.310Z,87.50
2023-04-15T03:51:42.385Z,87.41
2023-04-15T03:54:15.399Z,87.41
2023-04-15T03:56:46.330Z,87.40
2023-04-15T03:59:17.426Z,87.64
2023-04-15T04:01:48.738Z,87.84
2023-04-15T04:04:20.095Z,87.82
2023-04-15T04:06:51.135Z,87.43
2023-04-15T04:09:20.693Z,87.33
2023-04-15T04:11:52.986Z,87.53
2023-04-15T04:14:29.480Z,87.64
2023-04-15T04:17:00.572Z,87.66
2023-04-15T04:19:31.768Z,87.37
2023-04-15T04:22:02.621Z,87.41
2023-04-15T04:24:32.482Z,87.52
2023-04-15T04:27:03.317Z,87.45
2023-04-15T04:29:34.453Z,87.45
2023-04-15T04:32:05.388Z,87.09
2023-04-15T04:34:36.794Z,86.72
2023-04-15T04:37:07.002Z,86.83
2023-04-15T04:39:38.414Z,86.88
2023-04-15T04:42:09.337Z,87.20
2023-04-15T04:44:40.523Z,87.31
2023-04-15T04:47:11.670Z,87.50
2023-04-15T04:49:41.229Z,87.69
2023-04-15T04:52:12.395Z,87.85
2023-04-15T04:54:43.842Z,88.05
2023-04-15T04:57:14.906Z,87.88
2023-04-15T04:59:44.414Z,87.77
2023-04-15T05:02:15.637Z,87.64
2023-04-15T05:04:46.900Z,87.71
2023-04-15T05:07:17.933Z,87.94
2023-04-15T05:09:48.941Z,87.58
2023-04-15T05:12:19.887Z,87.24
2023-04-15T05:14:50.898Z,86.93
2023-04-15T05:17:22.270Z,87.05
2023-04-15T05:19:55.167Z,87.01
2023-04-15T05:22:24.859Z,86.83
2023-04-15T05:24:56.379Z,86.66
2023-04-15T05:27:27.508Z,87.01
2023-04-15T05:29:57.337Z,86.65
2023-04-15T05:32:28.360Z,86.28
2023-04-15T05:34:59.422Z,85.84
2023-04-15T05:37:30.821Z,85.81
2023-04-15T05:40:00.314Z,86.02
2023-04-15T05:42:32.338Z,86.49
2023-04-15T05:45:05.550Z,86.71
2023-04-15T05:47:37.743Z,86.70
2023-04-15T05:50:10.152Z,86.94
2023-04-15T05:52:41.208Z,86.73
2023-04-15T05:55:12.808Z,86.94
2023-04-15T05:57:43.840Z,87.07
2023-04-15T06:00:14.523Z,86.80
2023-04-15T06:02:45.763Z,86.36
2023-04-15T06:05:16.976Z,86.05
2023-04-15T06:07:48.320Z,85.52
2023-04-15T06:10:22.077Z,84.65
2023-04-15T06:12:53.852Z,84.77
2023-04-15T06:15:24.939Z,84.73
2023-04-15T06:17:55.940Z,84.16
2023-04-15T06:20:27.976Z,83.61
2023-04-15T06:22:58.975Z,84.07
2023-04-15T06:25:30.016Z,84.55
2023-04-15T06:27:59.511Z,84.19
2023-04-15T06:30:30.673Z,83.96
2023-04-15T06:33:05.537Z,84.05
2023-04-15T06:35:36.710Z,83.91
2023-04-15T06:38:06.417Z,83.90
2023-04-15T06:40:37.902Z,84.00
2023-04-15T06:43:09.226Z,83.76
2023-04-15T06:45:40.487Z,84.50
2023-04-15T06:48:09.969Z,84.16
2023-04-15T06:50:41.440Z,84.06
2023-04-15T06:53:12.451Z,84.02
2023-04-15T06:55:43.483Z,83.21
2023-04-15T06:58:14.835Z,82.57
2023-04-15T07:00:44.926Z,83.00
2023-04-15T07:03:16.579Z,83.47
2023-04-15T07:05:47.770Z,83.44
2023-04-15T07:08:17.351Z,83.40
2023-04-15T07:10:48.861Z,82.31
2023-04-15T07:13:19.907Z,82.71
2023-04-15T07:15:51.132Z,83.11
2023-04-15T07:18:22.363Z,82.26
2023-04-15T07:20:54.807Z,81.08
2023-04-15T07:23:25.990Z,81.20
2023-04-15T07:25:57.554Z,81.15
2023-04-15T07:28:28.728Z,81.53
2023-04-15T07:30:58.258Z,81.45
2023-04-15T07:33:29.535Z,80.92
2023-04-15T07:36:00.894Z,80.58
2023-04-15T07:38:31.880Z,79.78
2023-04-15T07:41:03.006Z,79.65
2023-04-15T07:43:33.995Z,79.77
2023-04-15T07:46:03.657Z,80.25
2023-04-15T07:48:35.615Z,80.13
2023-04-15T07:51:08.760Z,80.36
2023-04-15T07:53:39.974Z,79.92
2023-04-15T07:56:09.839Z,79.42
2023-04-15T07:58:41.417Z,79.95
2023-04-15T08:01:12.807Z,79.96
2023-04-15T08:03:44.011Z,79.88
2023-04-15T08:06:15.339Z,80.21
2023-04-15T08:08:47.074Z,80.34
2023-04-15T08:11:18.109Z,80.01
2023-04-15T08:13:49.600Z,79.83
2023-04-15T08:16:26.106Z,79.81
2023-04-15T08:18:59.082Z,79.42
2023-04-15T08:21:31.080Z,78.81
2023-04-15T08:24:03.334Z,79.80
2023-04-15T08:26:34.416Z,79.92
2023-04-15T08:29:06.085Z,79.04
2023-04-15T08:31:39.672Z,78.41
2023-04-15T08:34:12.566Z,78.60
2023-04-15T08:36:43.881Z,77.90
2023-04-15T08:39:13.314Z,77.30
2023-04-15T08:41:49.377Z,76.52
2023-04-15T08:44:21.692Z,76.76
2023-04-15T08:46:54.511Z,76.53
2023-04-15T08:49:28.650Z,75.86
2023-04-15T08:52:01.594Z,76.99
2023-04-15T08:54:33.114Z,75.43
2023-04-15T08:57:04.452Z,74.34
2023-04-15T08:59:35.934Z,75.01
2023-04-15T09:02:06.958Z,74.66
2023-04-15T09:04:38.307Z,75.51
2023-04-15T09:07:09.588Z,74.74
2023-04-15T09:09:43.148Z,74.34
2023-04-15T09:12:14.490Z,73.42
2023-04-15T09:14:47.254Z,73.80
2023-04-15T09:17:21.794Z,74.22
2023-04-15T09:20:11.538Z,73.48
2023-04-15T09:22:44.413Z,73.04
2023-04-15T09:25:34.311Z,73.32
2023-04-15T09:28:06.294Z,73.70
2023-04-15T09:30:37.545Z,73.30
2023-04-15T09:33:10.969Z,73.50
2023-04-15T09:35:42.404Z,73.39
2023-04-15T09:38:13.397Z,72.80
2023-04-15T09:40:43.125Z,72.00
2023-04-15T09:43:14.256Z,71.81
2023-04-15T09:45:50.999Z,71.64
2023-04-15T09:48:23.932Z,71.21
2023-04-15T09:50:55.002Z,71.62
2023-04-15T09:53:27.562Z,70.97
2023-04-15T09:56:01.574Z,71.08
2023-04-15T09:58:35.154Z,70.73
2023-04-15T10:01:07.821Z,70.95
2023-04-15T10:03:39.791Z,71.23
2023-04-15T10:06:11.484Z,71.10
2023-04-15T10:08:42.980Z,71.51
2023-04-15T10:11:15.185Z,71.38
2023-04-15T10:13:48.680Z,71.24
2023-04-15T10:16:21.931Z,70.70
2023-04-15T10:18:57.535Z,70.12
2023-04-15T10:21:29.717Z,70.12
2023-04-15T10:24:02.426Z,70.53
2023-04-15T10:26:34.412Z,69.57
2023-04-15T10:29:06.012Z,69.85
2023-04-15T10:31:38.528Z,69.00
2023-04-15T10:34:10.860Z,68.69
2023-04-15T10:36:42.197Z,68.59
2023-04-15T10:39:41.100Z,68.12
2023-04-15T10:42:13.411Z,68.38
2023-04-15T10:44:47.282Z,68.97
2023-04-15T10:47:20.297Z,68.76
2023-04-15T10:49:53.772Z,68.78
2023-04-15T10:52:28.832Z,68.95
2023-04-15T10:55:14.321Z,68.16
2023-04-15T10:57:46.699Z,67.98
2023-04-15T11:00:20.755Z,67.24
2023-04-15T11:02:57.005Z,68.53
2023-04-15T11:05:57.180Z,69.40
2023-04-15T11:08:58.740Z,70.09
2023-04-15T11:12:04.824Z,67.94
2023-04-15T11:14:40.767Z,70.18
2023-04-15T11:17:11.887Z,69.55
2023-04-15T11:19:44.511Z,68.56
2023-04-15T11:22:15.595Z,67.61
2023-04-15T11:24:50.671Z,67.43
2023-04-15T11:27:26.254Z,66.23
2023-04-15T11:29:57.182Z,66.22
2023-04-15T11:32:28.294Z,66.47
2023-04-15T11:34:59.730Z,65.67
2023-04-15T11:37:35.476Z,65.46
2023-04-15T11:40:08.770Z,66.37
2023-04-15T11:42:49.048Z,65.78
2023-04-15T11:45:20.806Z,65.43
2023-04-15T11:47:53.649Z,66.81
2023-04-15T11:50:26.520Z,65.08
2023-04-15T11:52:59.375Z,65.26
2023-04-15T11:55:30.825Z,66.20
2023-04-15T11:58:16.407Z,65.82
2023-04-15T12:00:52.600Z,65.07
2023-04-15T12:03:28.482Z,65.87
2023-04-15T12:06:23.677Z,65.88
2023-04-15T12:09:02.841Z,65.78
2023-04-15T12:11:40.114Z,65.21
2023-04-15T12:14:11.038Z,64.91
2023-04-15T12:16:48.788Z,65.19
2023-04-15T12:19:25.957Z,63.89
2023-04-15T12:22:01.372Z,63.83
2023-04-15T12:24:36.220Z,64.58
2023-04-15T12:27:08.681Z,64.19
2023-04-15T12:29:41.001Z,63.80
2023-04-15T12:32:14.225Z,65.00
2023-04-15T12:34:50.643Z,64.71
2023-04-15T12:37:22.292Z,63.53
2023-04-15T12:39:55.075Z,64.18
2023-04-15T12:42:26.268Z,62.85
2023-04-15T12:44:57.541Z,61.90
2023-04-15T12:47:28.806Z,61.91
2023-04-15T12:50:00.133Z,61.61
2023-04-15T12:52:31.402Z,62.03
2023-04-15T12:55:02.447Z,62.15
2023-04-15T12:57:34.108Z,61.72
2023-04-15T13:00:08.246Z,63.40
2023-04-15T13:02:39.548Z,62.23
2023-04-15T13:05:11.671Z,62.56
2023-04-15T13:07:42.757Z,60.94
2023-04-15T13:10:14.320Z,59.96
2023-04-15T13:12:47.004Z,58.36
2023-04-15T13:15:20.750Z,59.22
2023-04-15T13:17:51.873Z,60.96
2023-04-15T13:20:22.855Z,61.14
2023-04-15T13:22:55.280Z,61.10
2023-04-15T13:25:26.214Z,60.40
2023-04-15T13:27:57.693Z,58.52
2023-04-15T13:30:28.967Z,58.15
2023-04-15T13:32:59.980Z,58.78
2023-04-15T13:35:31.540Z,59.56
2023-04-15T13:38:02.586Z,60.27
2023-04-15T13:40:33.529Z,60.06
2023-04-15T13:43:04.809Z,58.68
2023-04-15T13:45:35.927Z,59.33
2023-04-15T13:48:07.485Z,59.97
2023-04-15T13:50:41.163Z,59.29
2023-04-15T13:53:12.700Z,59.60
2023-04-15T13:55:43.856Z,57.41
2023-04-15T13:58:14.720Z,58.09
2023-04-15T14:00:45.979Z,58.80
2023-04-15T14:03:17.196Z,58.95
2023-04-15T14:05:53.562Z,58.24
2023-04-15T14:08:26.122Z,58.92
2023-04-15T14:10:57.806Z,58.88
2023-04-15T14:13:29.070Z,58.75
2023-04-15T14:16:01.001Z,60.17
2023-04-15T14:18:32.157Z,60.49
2023-04-15T14:21:03.820Z,57.19
2023-04-15T14:23:34.758Z,57.16
2023-04-15T14:26:06.385Z,56.93
2023-04-15T14:28:38.539Z,58.70
2023-04-15T14:31:09.790Z,58.97
2023-04-15T14:33:41.138Z,58.08
2023-04-15T14:36:12.528Z,57.65
2023-04-15T14:38:43.479Z,56.98
2023-04-15T14:41:14.399Z,56.26
2023-04-15T14:43:45.494Z,55.98
2023-04-15T14:46:16.770Z,55.84
2023-04-15T14:48:47.909Z,56.58
2023-04-15T14:51:19.068Z,56.66
2023-04-15T14:53:50.718Z,57.58
2023-04-15T14:56:22.094Z,56.27
2023-04-15T14:58:54.322Z,56.43
2023-04-15T15:01:25.414Z,57.50
2023-04-15T15:03:56.709Z,58.50
2023-04-15T15:06:28.921Z,57.97
2023-04-15T15:09:01.858Z,58.06
2023-04-15T15:11:33.973Z,58.11
2023-04-15T15:14:05.132Z,58.54
2023-04-15T15:16:36.805Z,56.89
2023-04-15T15:19:09.205Z,55.71
2023-04-15T15:21:40.508Z,55.03
2023-04-15T15:24:11.745Z,54.48
2023-04-15T15:26:42.922Z,54.74
2023-04-15T15:29:13.838Z,53.65
2023-04-15T15:31:45.030Z,53.20
2023-04-15T15:34:16.942Z,53.59
2023-04-15T15:36:47.976Z,53.39
2023-04-15T15:39:19.161Z,54.32
2023-04-15T15:41:50.197Z,54.45
2023-04-15T15:44:21.239Z,55.21
2023-04-15T15:46:52.728Z,56.37
2023-04-15T15:49:25.404Z,57.57
2023-04-15T15:51:56.915Z,58.59
2023-04-15T15:54:28.171Z,58.77
2023-04-15T15:56:59.106Z,59.09
2023-04-15T15:59:30.067Z,60.94
2023-04-15T16:02:02.626Z,61.70
2023-04-15T16:04:34.100Z,62.82
2023-04-15T16:07:05.563Z,63.41
2023-04-15T16:09:36.833Z,63.29
2023-04-15T16:12:07.979Z,62.97
2023-04-15T16:14:40.148Z,62.73
2023-04-15T16:17:11.751Z,62.83
2023-04-15T16:19:56.871Z,63.17
2023-04-15T16:22:31.989Z,64.30
2023-04-15T16:25:03.734Z,64.36
2023-04-15T16:27:40.830Z,64.18
2023-04-15T16:30:22.248Z,63.75
2023-04-15T16:32:54.328Z,63.92
2023-04-15T16:35:25.986Z,63.84
2023-04-15T16:37:57.846Z,63.61
2023-04-15T16:40:28.900Z,63.52
2023-04-15T16:43:00.126Z,63.53
2023-04-15T16:45:31.264Z,63.19
2023-04-15T16:48:02.298Z,63.12
2023-04-15T16:50:33.656Z,63.57
2023-04-15T16:53:04.750Z,63.79
2023-04-15T16:55:36.164Z,63.74
2023-04-15T16:58:09.961Z,64.01
2023-04-15T17:00:41.003Z,64.18
2023-04-15T17:03:12.829Z,64.34
2023-04-15T17:05:44.209Z,64.62
2023-04-15T17:08:15.149Z,64.77
2023-04-15T17:10:46.445Z,64.64
2023-04-15T17:13:17.553Z,64.40
2023-04-15T17:15:48.905Z,64.77
2023-04-15T17:18:19.853Z,64.78
2023-04-15T17:20:51.166Z,64.97
2023-04-15T17:23:22.474Z,65.42
2023-04-15T17:25:53.668Z,65.86
2023-04-15T17:28:24.799Z,66.38
2023-04-15T17:30:56.247Z,67.04
2023-04-15T17:33:59.271Z,67.51
2023-04-15T17:36:19.006Z,68.03
2023-04-15T17:38:50.276Z,68.54
2023-04-15T17:41:21.415Z,68.83
2023-04-15T17:43:54.100Z,69.33
2023-04-15T17:46:25.163Z,69.83
2023-04-15T17:48:56.162Z,70.23
2023-04-15T17:51:28.117Z,70.68
2023-04-15T17:53:59.333Z,71.09
2023-04-15T17:56:30.583Z,71.19
2023-04-15T17:59:02.639Z,71.42
2023-04-15T18:01:34.217Z,71.55
2023-04-15T18:04:03.868Z,71.67
2023-04-15T18:06:35.644Z,71.72
2023-04-15T18:09:08.807Z,72.31
2023-04-15T18:11:40.981Z,72.72
2023-04-15T18:14:13.945Z,73.33
2023-04-15T18:16:47.930Z,73.69
2023-04-15T18:19:19.118Z,73.80
2023-04-15T18:21:52.270Z,73.86
2023-04-15T18:24:23.589Z,74.04
2023-04-15T18:26:55.167Z,74.41
2023-04-15T18:29:26.493Z,74.84
2023-04-15T18:32:00.077Z,75.42
2023-04-15T18:34:31.958Z,75.66
2023-04-15T18:37:03.590Z,76.18
2023-04-15T18:39:34.848Z,76.12
2023-04-15T18:42:04.787Z,76.12
2023-04-15T18:44:35.911Z,76.10
2023-04-15T18:47:07.863Z,76.07
2023-04-15T18:49:39.144Z,76.17
2023-04-15T18:52:11.155Z,76.37
2023-04-15T18:54:42.713Z,76.63
2023-04-15T18:57:14.076Z,77.07
2023-04-15T18:59:51.605Z,77.06
2023-04-15T19:02:22.909Z,77.19
2023-04-15T19:04:54.919Z,77.44
2023-04-15T19:07:26.653Z,77.45
2023-04-15T19:09:57.919Z,77.93
2023-04-15T19:12:29.140Z,78.49
2023-04-15T19:15:00.158Z,78.61
2023-04-15T19:17:31.492Z,78.75
2023-04-15T19:20:02.493Z,78.78
2023-04-15T19:22:34.321Z,78.95
2023-04-15T19:25:06.571Z,78.94
2023-04-15T19:27:38.357Z,78.96
2023-04-15T19:30:11.698Z,79.08
2023-04-15T19:32:42.802Z,78.86
2023-04-15T19:35:13.774Z,78.92
2023-04-15T19:37:44.777Z,79.09
2023-04-15T19:40:14.361Z,79.11
2023-04-15T19:42:44.300Z,79.09
2023-04-15T19:45:15.790Z,79.16
2023-04-15T19:47:47.175Z,79.19
2023-04-15T19:50:19.389Z,79.19
2023-04-15T19:52:50.405Z,79.34
2023-04-15T19:55:21.915Z,79.64
2023-04-15T19:57:53.110Z,79.98
2023-04-15T20:00:24.547Z,79.88
2023-04-15T20:02:58.345Z,80.09
2023-04-15T20:05:29.635Z,80.33
2023-04-15T20:07:59.968Z,80.44
2023-04-15T20:10:32.312Z,80.52
2023-04-15T20:13:03.565Z,80.60
2023-04-15T20:15:34.944Z,80.70
2023-04-15T20:18:06.093Z,80.83
2023-04-15T20:20:41.587Z,80.74
2023-04-15T20:23:12.956Z,80.66
2023-04-15T20:25:46.440Z,80.83
2023-04-15T20:28:19.435Z,80.95
2023-04-15T20:30:50.314Z,80.96
2023-04-15T20:33:22.335Z,80.99
2023-04-15T20:35:56.673Z,81.07
2023-04-15T20:38:27.804Z,81.00
2023-04-15T20:40:59.105Z,81.05
2023-04-15T20:43:30.222Z,80.85
2023-04-15T20:46:06.997Z,80.78
2023-04-15T20:48:44.976Z,80.91
2023-04-15T20:51:16.114Z,80.89
2023-04-15T20:53:47.225Z,81.19
2023-04-15T20:56:18.320Z,81.29
2023-04-15T20:58:49.192Z,81.45
2023-04-15T21:01:20.256Z,81.70
2023-04-15T21:03:51.614Z,81.94
2023-04-15T21:06:22.709Z,82.09
2023-04-15T21:08:53.832Z,82.17
2023-04-15T21:11:43.139Z,82.25
2023-04-15T21:14:16.367Z,82.30
2023-04-15T21:16:48.082Z,82.06
2023-04-15T21:19:19.295Z,82.05
2023-04-15T21:21:50.350Z,82.05
2023-04-15T21:24:21.515Z,81.78
2023-04-15T21:26:52.523Z,81.86
2023-04-15T21:29:24.073Z,82.06
2023-04-15T21:31:55.288Z,81.99
2023-04-15T21:34:26.693Z,82.08
2023-04-15T21:37:00.605Z,81.85
2023-04-15T21:39:31.932Z,81.98
2023-04-15T21:42:03.571Z,81.80
2023-04-15T21:44:34.700Z,81.85
2023-04-15T21:47:05.687Z,81.73
2023-04-15T21:49:36.772Z,81.86
2023-04-15T21:52:07.948Z,82.02
2023-04-15T21:54:39.305Z,82.06
2023-04-15T21:57:10.266Z,82.10
2023-04-15T21:59:41.424Z,82.33
2023-04-15T22:02:12.494Z,82.60
2023-04-15T22:04:42.166Z,82.59
2023-04-15T22:07:13.267Z,82.81
2023-04-15T22:09:44.400Z,82.67
2023-04-15T22:12:15.587Z,82.71
2023-04-15T22:14:47.844Z,82.61
2023-04-15T22:17:19.218Z,82.83
2023-04-15T22:19:49.167Z,82.84
2023-04-15T22:22:20.422Z,83.02
2023-04-15T22:24:56.297Z,82.96
2023-04-15T22:27:27.394Z,82.98
2023-04-15T22:29:58.711Z,82.81
2023-04-15T22:32:28.144Z,82.84
2023-04-15T22:34:59.188Z,82.90
2023-04-15T22:37:30.952Z,82.96
2023-04-15T22:40:03.302Z,82.86
2023-04-15T22:42:34.445Z,82.99
2023-04-15T22:45:06.198Z,82.92
2023-04-15T22:47:37.364Z,83.02
2023-04-15T22:50:10.414Z,83.21
2023-04-15T22:52:41.342Z,83.34
2023-04-15T22:55:13.026Z,83.45
2023-04-15T22:57:44.728Z,83.35
2023-04-15T23:00:16.402Z,83.44
2023-04-15T23:02:47.585Z,83.63
2023-04-15T23:05:18.835Z,83.79
2023-04-15T23:07:49.975Z,83.75
2023-04-15T23:10:21.194Z,83.85
2023-04-15T23:12:50.920Z,84.04
2023-04-15T23:15:22.219Z,84.09
2023-04-15T23:17:53.597Z,84.17
2023-04-15T23:20:23.541Z,84.00
2023-04-15T23:22:54.702Z,84.09
2023-04-15T23:25:25.789Z,84.11
2023-04-15T23:27:56.859Z,84.08
2023-04-15T23:30:28.234Z,84.17
2023-04-15T23:32:59.898Z,84.23
2023-04-15T23:35:31.314Z,84.26
2023-04-15T23:38:02.497Z,84.35
2023-04-15T23:40:34.960Z,84.53
2023-04-15T23:43:06.202Z,84.44
2023-04-15T23:45:37.193Z,84.41
2023-04-15T23:48:09.233Z,84.41
2023-04-15T23:50:40.483Z,84.27
2023-04-15T23:53:10.064Z,84.04
2023-04-15T23:55:41.338Z,84.06
2023-04-15T23:58:12.391Z,84.18
